createdAt,value
2023-04-27T00:02:27.771Z,9.63
2023-04-27T00:05:30.742Z,9.62
2023-04-27T00:08:34.877Z,9.58
2023-04-27T00:11:37.581Z,9.48
2023-04-27T00:14:40.421Z,9.52
2023-04-27T00:17:43.625Z,9.54
2023-04-27T00:20:46.960Z,9.50
2023-04-27T00:23:51.141Z,9.54
2023-04-27T00:26:53.853Z,9.61
2023-04-27T00:29:56.932Z,9.53
2023-04-27T00:32:59.746Z,9.40
2023-04-27T00:36:02.897Z,9.34
2023-04-27T00:39:06.916Z,9.26
2023-04-27T00:42:14.003Z,9.32
2023-04-27T00:45:16.716Z,9.39
2023-04-27T00:48:19.706Z,9.45
2023-04-27T00:51:22.387Z,9.50
2023-04-27T00:54:26.954Z,9.40
2023-04-27T00:57:29.647Z,9.32
2023-04-27T01:00:32.461Z,9.27
2023-04-27T01:03:35.725Z,9.31
2023-04-27T01:06:39.318Z,9.29
2023-04-27T01:09:43.481Z,9.24
2023-04-27T01:12:46.276Z,9.24
2023-04-27T01:15:49.595Z,9.21
2023-04-27T01:18:52.575Z,9.26
2023-04-27T01:21:55.363Z,9.26
2023-04-27T01:24:59.429Z,9.25
2023-04-27T01:28:02.283Z,9.21
2023-04-27T01:31:05.044Z,9.29
2023-04-27T01:34:07.897Z,9.30
2023-04-27T01:37:10.590Z,9.31
2023-04-27T01:40:15.446Z,9.21
2023-04-27T01:43:18.449Z,9.23
2023-04-27T01:46:21.723Z,9.28
2023-04-27T01:49:24.616Z,9.26
2023-04-27T01:52:27.555Z,9.25
2023-04-27T01:55:31.629Z,9.19
2023-04-27T01:58:34.342Z,9.20
2023-04-27T02:01:37.126Z,9.22
2023-04-27T02:04:40.018Z,9.20
2023-04-27T02:07:42.876Z,9.12
2023-04-27T02:10:47.322Z,9.15
2023-04-27T02:13:50.078Z,9.08
2023-04-27T02:16:52.712Z,9.09
2023-04-27T02:19:55.425Z,9.06
2023-04-27T02:22:58.250Z,9.01
2023-04-27T02:26:02.330Z,8.94
2023-04-27T02:29:05.071Z,8.92
2023-04-27T02:32:08.454Z,8.86
2023-04-27T02:35:11.231Z,8.88
2023-04-27T02:38:14.131Z,8.96
2023-04-27T02:41:18.261Z,8.96
2023-04-27T02:44:21.067Z,8.94
2023-04-27T02:47:23.912Z,8.97
2023-04-27T02:50:26.899Z,8.90
2023-04-27T02:53:29.654Z,8.85
2023-04-27T02:56:33.820Z,8.84
2023-04-27T02:59:36.594Z,8.81
2023-04-27T03:02:39.530Z,8.88
2023-04-27T03:05:42.571Z,8.89
2023-04-27T03:08:45.488Z,9.00
2023-04-27T03:11:49.608Z,9.05
2023-04-27T03:14:52.282Z,9.05
2023-04-27T03:17:55.074Z,9.01
2023-04-27T03:21:06.600Z,9.01
2023-04-27T03:24:09.378Z,9.07
2023-04-27T03:27:13.917Z,9.10
2023-04-27T03:30:16.750Z,9.04
2023-04-27T03:33:19.577Z,8.89
2023-04-27T03:36:22.271Z,8.89
2023-04-27T03:39:25.062Z,8.89
2023-04-27T03:42:29.541Z,8.81
2023-04-27T03:45:32.397Z,8.83
2023-04-27T03:48:35.066Z,8.89
2023-04-27T03:51:39.834Z,8.91
2023-04-27T03:54:42.685Z,8.94
2023-04-27T03:57:46.776Z,8.95
2023-04-27T04:00:49.576Z,8.97
2023-04-27T04:03:52.326Z,8.94
2023-04-27T04:06:55.336Z,8.94
2023-04-27T04:09:58.086Z,8.95
2023-04-27T04:13:02.190Z,8.95
2023-04-27T04:16:06.297Z,8.91
2023-04-27T04:19:09.672Z,8.86
2023-04-27T04:22:12.424Z,8.89
2023-04-27T04:25:15.343Z,8.96
2023-04-27T04:28:19.407Z,9.07
2023-04-27T04:31:23.093Z,9.06
2023-04-27T04:34:26.223Z,9.05
2023-04-27T04:37:29.252Z,9.02
2023-04-27T04:40:31.969Z,9.00
2023-04-27T04:43:36.966Z,9.00
2023-04-27T04:46:40.108Z,8.98
2023-04-27T04:49:43.004Z,9.09
2023-04-27T04:52:46.130Z,9.14
2023-04-27T04:55:49.471Z,9.21
2023-04-27T04:58:53.772Z,9.17
2023-04-27T05:01:56.708Z,9.16
2023-04-27T05:04:59.858Z,9.18
2023-04-27T05:08:02.913Z,9.23
2023-04-27T05:11:06.170Z,9.31
2023-04-27T05:14:10.634Z,9.33
2023-04-27T05:17:13.514Z,9.36
2023-04-27T05:20:16.468Z,9.44
2023-04-27T05:23:19.124Z,9.41
2023-04-27T05:26:21.842Z,9.44
2023-04-27T05:29:27.188Z,9.43
2023-04-27T05:32:30.457Z,9.51
2023-04-27T05:35:33.648Z,9.62
2023-04-27T05:38:40.057Z,9.66
2023-04-27T05:41:42.986Z,9.75
2023-04-27T05:44:47.151Z,9.88
2023-04-27T05:47:49.934Z,9.97
2023-04-27T05:51:00.419Z,10.00
2023-04-27T05:54:03.308Z,10.09
2023-04-27T05:57:06.193Z,10.11
2023-04-27T06:00:12.690Z,10.14
2023-04-27T06:03:15.608Z,10.07
2023-04-27T06:06:18.696Z,10.05
2023-04-27T06:09:21.630Z,10.10
2023-04-27T06:12:24.384Z,10.23
2023-04-27T06:15:29.359Z,10.31
2023-04-27T06:18:32.899Z,10.33
2023-04-27T06:21:36.451Z,10.45
2023-04-27T06:24:39.282Z,10.47
2023-04-27T06:27:42.228Z,10.43
2023-04-27T06:30:46.539Z,10.56
2023-04-27T06:33:49.353Z,10.69
2023-04-27T06:36:52.239Z,10.74
2023-04-27T06:39:55.584Z,10.79
2023-04-27T06:42:58.380Z,10.93
2023-04-27T06:46:02.972Z,11.06
2023-04-27T06:49:05.886Z,11.29
2023-04-27T06:52:08.725Z,11.48
2023-04-27T06:55:11.646Z,11.55
2023-04-27T06:58:14.507Z,11.49
2023-04-27T07:01:18.798Z,11.55
2023-04-27T07:04:21.916Z,11.67
2023-04-27T07:07:25.244Z,11.81
2023-04-27T07:10:28.961Z,11.92
2023-04-27T07:13:31.896Z,11.91
2023-04-27T07:16:36.529Z,11.96
2023-04-27T07:19:39.686Z,12.09
2023-04-27T07:22:42.474Z,12.01
2023-04-27T07:25:46.333Z,12.20
2023-04-27T07:28:50.236Z,12.72
2023-04-27T07:31:54.508Z,13.22
2023-04-27T07:34:58.168Z,13.53
2023-04-27T07:38:01.868Z,13.96
2023-04-27T07:41:05.735Z,14.28
2023-04-27T07:44:08.531Z,14.44
2023-04-27T07:47:13.598Z,14.73
2023-04-27T07:50:17.792Z,15.02
2023-04-27T07:53:20.905Z,15.09
2023-04-27T07:56:23.872Z,15.08
2023-04-27T07:59:29.816Z,15.07
2023-04-27T08:02:34.855Z,15.10
2023-04-27T08:05:38.346Z,15.33
2023-04-27T08:08:41.519Z,15.55
2023-04-27T08:11:44.373Z,15.73
2023-04-27T08:14:47.973Z,15.91
2023-04-27T08:17:52.267Z,15.83
2023-04-27T08:20:55.210Z,15.82
2023-04-27T08:23:58.024Z,15.98
2023-04-27T08:27:01.051Z,16.10
2023-04-27T08:30:04.011Z,16.19
2023-04-27T08:33:08.359Z,16.31
2023-04-27T08:36:11.123Z,16.44
2023-04-27T08:39:14.093Z,16.48
2023-04-27T08:42:17.152Z,16.65
2023-04-27T08:45:20.576Z,16.80
2023-04-27T08:48:25.003Z,16.87
2023-04-27T08:51:28.710Z,17.01
2023-04-27T08:54:31.784Z,16.89
2023-04-27T08:57:34.529Z,17.04
2023-04-27T09:00:41.560Z,17.23
2023-04-27T09:03:47.314Z,17.35
2023-04-27T09:06:50.668Z,17.49
2023-04-27T09:10:04.119Z,17.54
2023-04-27T09:13:07.097Z,17.44
2023-04-27T09:16:10.227Z,17.33
2023-04-27T09:19:25.059Z,17.06
2023-04-27T09:22:27.946Z,16.85
2023-04-27T09:25:33.042Z,16.77
2023-04-27T09:28:39.163Z,16.78
2023-04-27T09:31:41.934Z,16.83
2023-04-27T09:34:46.450Z,16.97
2023-04-27T09:37:51.978Z,16.99
2023-04-27T09:40:56.702Z,17.23
2023-04-27T09:44:00.238Z,17.48
2023-04-27T09:47:03.058Z,17.74
2023-04-27T09:50:09.097Z,18.01
2023-04-27T09:53:13.893Z,18.22
2023-04-27T09:56:29.114Z,18.39
2023-04-27T10:00:01.736Z,18.50
2023-04-27T10:03:16.628Z,18.40
2023-04-27T10:06:53.168Z,18.41
2023-04-27T10:09:56.073Z,18.53
2023-04-27T10:13:02.953Z,18.55
2023-04-27T10:16:17.226Z,18.58
2023-04-27T10:19:20.620Z,18.61
2023-04-27T10:22:25.556Z,18.75
2023-04-27T10:25:31.182Z,18.99
2023-04-27T10:28:40.204Z,19.15
2023-04-27T10:31:45.017Z,19.25
2023-04-27T10:34:49.099Z,19.24
2023-04-27T10:37:53.351Z,19.34
2023-04-27T10:41:01.541Z,19.45
2023-04-27T10:44:18.736Z,19.49
2023-04-27T10:47:22.128Z,19.59
2023-04-27T10:50:26.369Z,19.65
2023-04-27T10:53:35.507Z,19.76
2023-04-27T10:56:38.431Z,19.87
2023-04-27T10:59:50.832Z,19.91
2023-04-27T11:02:54.820Z,19.73
2023-04-27T11:06:04.153Z,19.35
2023-04-27T11:09:10.673Z,18.93
2023-04-27T11:12:14.044Z,18.65
2023-04-27T11:15:16.820Z,18.66
2023-04-27T11:18:21.882Z,18.78
2023-04-27T11:21:25.617Z,19.02
2023-04-27T11:24:32.853Z,19.12
2023-04-27T11:27:39.547Z,19.10
2023-04-27T11:30:42.420Z,18.91
2023-04-27T11:33:49.886Z,18.93
2023-04-27T11:37:17.438Z,18.99
2023-04-27T11:40:24.560Z,19.07
2023-04-27T11:43:28.125Z,19.13
2023-04-27T11:46:31.330Z,19.24
2023-04-27T11:49:34.496Z,19.41
2023-04-27T11:52:39.079Z,19.65
2023-04-27T11:55:45.033Z,19.80
2023-04-27T11:58:47.956Z,19.90
2023-04-27T12:01:52.721Z,19.96
2023-04-27T12:04:55.638Z,19.99
2023-04-27T12:07:58.485Z,20.10
2023-04-27T12:11:02.709Z,20.23
2023-04-27T12:14:05.572Z,20.35
2023-04-27T12:17:08.512Z,20.50
2023-04-27T12:20:12.855Z,20.45
2023-04-27T12:23:15.773Z,20.35
2023-04-27T12:26:20.487Z,20.32
2023-04-27T12:29:24.489Z,20.44
2023-04-27T12:32:28.137Z,20.52
2023-04-27T12:35:32.129Z,20.58
2023-04-27T12:38:35.095Z,20.72
2023-04-27T12:41:39.309Z,20.87
2023-04-27T12:44:42.395Z,20.93
2023-04-27T12:48:01.085Z,20.98
2023-04-27T12:51:07.429Z,20.75
2023-04-27T12:54:12.966Z,20.57
2023-04-27T12:57:17.373Z,20.32
2023-04-27T13:00:20.690Z,20.21
2023-04-27T13:03:23.584Z,20.16
2023-04-27T13:06:26.966Z,20.22
2023-04-27T13:09:30.142Z,20.30
2023-04-27T13:12:34.507Z,20.45
2023-04-27T13:15:37.600Z,20.62
2023-04-27T13:18:41.382Z,20.80
2023-04-27T13:21:44.117Z,20.77
2023-04-27T13:24:46.989Z,20.62
2023-04-27T13:27:51.665Z,20.61
2023-04-27T13:30:54.692Z,20.61
2023-04-27T13:33:57.519Z,20.43
2023-04-27T13:37:00.301Z,20.38
2023-04-27T13:40:03.049Z,20.48
2023-04-27T13:43:07.246Z,20.48
2023-04-27T13:46:10.140Z,20.49
2023-04-27T13:49:12.982Z,20.39
2023-04-27T13:52:15.731Z,20.20
2023-04-27T13:55:18.534Z,20.08
2023-04-27T13:58:25.642Z,20.00
2023-04-27T14:01:29.590Z,20.08
2023-04-27T14:04:32.618Z,20.16
2023-04-27T14:07:36.519Z,20.15
2023-04-27T14:10:39.556Z,20.21
2023-04-27T14:13:43.741Z,20.34
2023-04-27T14:16:46.986Z,20.48
2023-04-27T14:19:50.003Z,20.28
2023-04-27T14:22:52.820Z,19.99
2023-04-27T14:25:55.756Z,20.03
2023-04-27T14:29:00.102Z,20.11
2023-04-27T14:32:02.888Z,20.15
2023-04-27T14:35:07.045Z,20.06
2023-04-27T14:38:09.994Z,19.90
2023-04-27T14:41:13.071Z,19.78
2023-04-27T14:44:17.250Z,19.54
2023-04-27T14:47:20.133Z,19.46
2023-04-27T14:50:22.831Z,19.43
2023-04-27T14:53:25.790Z,19.47
2023-04-27T14:56:28.531Z,19.33
2023-04-27T14:59:34.177Z,19.33
2023-04-27T15:02:37.309Z,19.39
2023-04-27T15:05:40.365Z,19.42
2023-04-27T15:08:43.281Z,19.41
2023-04-27T15:11:46.798Z,19.30
2023-04-27T15:14:52.776Z,19.38
2023-04-27T15:17:55.671Z,19.53
2023-04-27T15:21:00.157Z,19.58
2023-04-27T15:24:02.970Z,19.70
2023-04-27T15:27:07.207Z,19.72
2023-04-27T15:30:16.137Z,19.67
2023-04-27T15:33:19.559Z,19.39
2023-04-27T15:36:23.435Z,19.25
2023-04-27T15:39:27.345Z,19.15
2023-04-27T15:42:30.370Z,19.00
2023-04-27T15:45:34.617Z,18.99
2023-04-27T15:48:37.515Z,19.12
2023-04-27T15:51:40.266Z,19.19
2023-04-27T15:54:43.036Z,19.16
2023-04-27T15:57:45.882Z,19.08
2023-04-27T16:00:50.097Z,19.14
2023-04-27T16:03:52.858Z,19.25
2023-04-27T16:06:55.651Z,19.31
2023-04-27T16:09:58.807Z,19.32
2023-04-27T16:13:01.549Z,19.32
2023-04-27T16:16:06.294Z,19.36
2023-04-27T16:19:09.956Z,19.35
2023-04-27T16:22:12.927Z,19.35
2023-04-27T16:25:16.062Z,19.30
2023-04-27T16:28:18.953Z,19.38
2023-04-27T16:31:24.155Z,19.45
2023-04-27T16:34:27.838Z,19.38
2023-04-27T16:37:30.642Z,19.15
2023-04-27T16:40:33.499Z,18.97
2023-04-27T16:43:36.308Z,18.89
2023-04-27T16:46:40.498Z,18.85
2023-04-27T16:49:43.619Z,18.85
2023-04-27T16:52:46.483Z,18.83
2023-04-27T16:55:49.449Z,18.80
2023-04-27T16:58:52.288Z,18.74
2023-04-27T17:01:56.486Z,18.70
2023-04-27T17:04:59.534Z,18.63
2023-04-27T17:08:05.105Z,18.62
2023-04-27T17:11:09.306Z,18.69
2023-04-27T17:14:13.869Z,18.67
2023-04-27T17:17:18.116Z,18.54
2023-04-27T17:20:21.574Z,18.35
2023-04-27T17:23:24.768Z,18.13
2023-04-27T17:26:27.594Z,17.95
2023-04-27T17:29:30.384Z,17.75
2023-04-27T17:32:34.674Z,17.59
2023-04-27T17:35:37.437Z,17.44
2023-04-27T17:38:40.900Z,17.22
2023-04-27T17:41:43.854Z,17.03
2023-04-27T17:44:46.837Z,16.84
2023-04-27T17:47:51.799Z,16.72
2023-04-27T17:50:54.820Z,16.58
2023-04-27T17:53:57.545Z,16.54
2023-04-27T17:57:00.375Z,16.52
2023-04-27T18:00:03.268Z,16.47
2023-04-27T18:03:07.530Z,16.40
2023-04-27T18:06:10.729Z,16.34
2023-04-27T18:09:13.788Z,16.25
2023-04-27T18:12:16.748Z,16.13
2023-04-27T18:15:19.518Z,16.00
2023-04-27T18:18:25.368Z,15.90
2023-04-27T18:21:28.383Z,15.81
2023-04-27T18:24:31.200Z,15.69
2023-04-27T18:27:33.941Z,15.51
2023-04-27T18:30:36.704Z,15.43
2023-04-27T18:33:40.866Z,15.29
2023-04-27T18:36:43.641Z,15.21
2023-04-27T18:39:46.348Z,15.10
2023-04-27T18:42:49.184Z,15.04
2023-04-27T18:45:52.086Z,14.86
2023-04-27T18:48:56.253Z,14.74
2023-04-27T18:51:59.008Z,14.68
2023-04-27T18:55:02.032Z,14.53
2023-04-27T18:58:04.807Z,14.52
2023-04-27T19:01:07.775Z,14.45
2023-04-27T19:04:12.538Z,14.45
2023-04-27T19:07:15.515Z,14.40
2023-04-27T19:10:18.484Z,14.39
2023-04-27T19:13:21.784Z,14.39
2023-04-27T19:16:24.880Z,14.35
2023-04-27T19:19:28.989Z,14.27
2023-04-27T19:22:34.229Z,14.16
2023-04-27T19:25:37.304Z,14.08
2023-04-27T19:28:40.351Z,14.02
2023-04-27T19:31:43.160Z,13.96
2023-04-27T19:34:47.320Z,13.93
2023-04-27T19:37:50.021Z,13.90
2023-04-27T19:40:53.112Z,13.76
2023-04-27T19:43:56.070Z,13.68
2023-04-27T19:46:58.882Z,13.63
2023-04-27T19:50:04.862Z,13.56
2023-04-27T19:53:07.602Z,13.53
2023-04-27T19:56:10.326Z,13.48
2023-04-27T19:59:13.112Z,13.49
2023-04-27T20:02:15.912Z,13.50
2023-04-27T20:05:20.405Z,13.41
2023-04-27T20:08:23.395Z,13.43
2023-04-27T20:11:26.216Z,13.38
2023-04-27T20:14:29.951Z,13.31
2023-04-27T20:17:32.887Z,13.30
2023-04-27T20:20:37.467Z,13.24
2023-04-27T20:23:40.221Z,13.21
2023-04-27T20:26:42.913Z,13.17
2023-04-27T20:29:47.154Z,13.10
2023-04-27T20:32:49.884Z,13.00
2023-04-27T20:36:03.525Z,13.01
2023-04-27T20:39:13.082Z,12.99
2023-04-27T20:42:16.095Z,12.91
2023-04-27T20:45:18.893Z,12.90
2023-04-27T20:48:21.603Z,12.86
2023-04-27T20:51:26.234Z,12.84
2023-04-27T20:54:31.071Z,12.76
2023-04-27T20:57:33.763Z,12.79
2023-04-27T21:00:36.767Z,12.83
2023-04-27T21:03:39.742Z,12.81
2023-04-27T21:06:44.574Z,12.76
2023-04-27T21:09:47.323Z,12.75
2023-04-27T21:12:49.999Z,12.78
2023-04-27T21:15:52.739Z,12.74
2023-04-27T21:18:55.444Z,12.77
2023-04-27T21:21:59.857Z,12.74
2023-04-27T21:25:02.754Z,12.69
2023-04-27T21:28:05.876Z,12.61
2023-04-27T21:31:08.682Z,12.59
2023-04-27T21:34:11.891Z,12.57
2023-04-27T21:37:15.908Z,12.56
2023-04-27T21:40:18.931Z,12.56
2023-04-27T21:43:21.774Z,12.58
2023-04-27T21:46:24.666Z,12.60
2023-04-27T21:49:27.484Z,12.51
2023-04-27T21:52:31.577Z,12.52
2023-04-27T21:55:34.231Z,12.55
2023-04-27T21:58:39.083Z,12.52
2023-04-27T22:01:42.048Z,12.41
2023-04-27T22:04:45.329Z,12.40
2023-04-27T22:07:49.504Z,12.41
2023-04-27T22:10:52.449Z,12.30
2023-04-27T22:13:56.159Z,12.23
2023-04-27T22:17:00.917Z,12.23
2023-04-27T22:20:05.485Z,12.08
2023-04-27T22:23:09.854Z,12.01
2023-04-27T22:26:12.641Z,11.91
2023-04-27T22:29:16.104Z,11.89
2023-04-27T22:32:18.889Z,11.87
2023-04-27T22:35:27.167Z,11.77
2023-04-27T22:38:32.157Z,11.75
2023-04-27T22:41:34.923Z,11.73
2023-04-27T22:44:37.688Z,11.71
2023-04-27T22:47:41.474Z,11.69
2023-04-27T22:50:44.356Z,11.68
2023-04-27T22:53:48.491Z,11.65
2023-04-27T22:56:51.527Z,11.63
2023-04-27T22:59:54.344Z,11.57
2023-04-27T23:02:57.290Z,11.68
2023-04-27T23:06:00.876Z,11.66
2023-04-27T23:09:05.474Z,11.64
2023-04-27T23:12:08.946Z,11.67
2023-04-27T23:15:12.883Z,11.64
2023-04-27T23:18:15.937Z,11.66
2023-04-27T23:21:18.814Z,11.67
2023-04-27T23:24:23.075Z,11.60
2023-04-27T23:27:25.974Z,11.44
2023-04-27T23:30:29.722Z,11.46
2023-04-27T23:33:33.512Z,11.53
2023-04-27T23:36:36.173Z,11.59
2023-04-27T23:39:40.342Z,11.62
2023-04-27T23:42:43.023Z,11.64
2023-04-27T23:45:50.439Z,11.71
2023-04-27T23:48:53.636Z,11.75
2023-04-27T23:51:56.644Z,11.84
2023-04-27T23:55:01.000Z,11.92
2023-04-27T23:58:03.894Z,12.00
